Erie International Tom Ridge Field
KERI : now visible

Airfield :











YOU CAN JOIN US ON...

 
LOGIN :

Register | Disclaimer

   EN    FR    IT 

 









Legend :    VFR   Marginal VFR   IFR   Intensive IFR   Very Intensive IFR
Visi :
Ceiling :
>= 8 km
>= 3000ft
5 to 8 km
1000 to 3000 ft
1500m to 5 km
500 to 1000 ft
800 to 1500m
200 to 500 ft
< 800m
< 200 ft
Symbols :   Thunderstorms  Fog  Heavy snow  Heavy precipitations  Wind > 20 kt






- Airport Elevation : 733 ft
- IATA code : ERI


KERI - Erie International Tom Ridge Field

CURRENT METAR :
  • 210151Z AUTO 06005KT 10SM OVC025 11/08 A3019 RMK AO2 SLP225 T01060078

EXPIRED METARs :
  • 210130Z AUTO 08005KT 10SM BKN025 OVC030 11/08 A3019 RMK AO2 T01060078
  • 210103Z 05005KT 10SM OVC030 11/08 A3020 RMK AO2 T01060078
  • 210051Z 07004KT 10SM FEW021 BKN028 OVC033 11/08 A3020 RMK AO2 SLP230 T01060078
  • 202351Z 06007KT 10SM BKN024 OVC033 11/07 A3023 RMK AO2 SLP238 T01060072 10111 20106 56005
  • 202327Z 07007KT 10SM BKN026 OVC032 11/07 A3023 RMK AO2 T01060072

TAF KERI
Valid from the 21 at 00:00 until the 22 at 00:00 UTC


202326Z 2100/2124 05010KT P6SM OVC015
TEMPO 2100/2104 OVC035
FM210900 18015G25KT P6SM VCSH BKN015 WS020/21045KT
FM211400 23015KT P6SM VCSH OVC015
KZOB FIR / North America



MET'MAP, your aeronautical weather chart ! - Copyright ORBIFLY December 2007 - Disclaimer

ORBIFLY MET'MAP TEAM :

Programming & Development : Alexandra Zaïnal
Concept & original design : Baudouin d'Aumeries
Assistance for programming : Marc-Olivier Méhu
Technical & hardware support : Manuel Goepfert

Contact : metmap@orbifly.com




SOURCES & CREDITS :

   NOAA       Earth
Advisory